Monday, June 25, 2018, 7:26 PM GMT
Back to Local

CWPS, Long Point Meteorological Aeronautical Presentation System

Location: , , Canada Lat: 42.567
Local Time: 7:26 PM GMT (19:26 GMT) Lon: -80.05
Time Zone: GMT Elev: 574 ft

Show me the last for .
Show Coded

Time T Td Feel RH Dir Speed Gust Alt SLP Vis Weather Sky Remarks
2018-06-25 18:00 66 53 - 62 100° 5 - - 30.20 0 None
2018-06-25 17:00 65 53 - 66 60° 3 - - 30.21 0 None
2018-06-25 16:00 63 53 - 70 20° 8 - - 30.20 0 None
2018-06-25 15:00 62 53 - 71 10° 12 - - 30.20 0 None
2018-06-25 14:00 61 54 - 76 360° 15 - - 30.18 0 None
2018-06-25 13:00 61 53 - 76 350° 16 - - 30.16 0 Peak wind: 20 mph (18 kts) from 340° at 05 min
2018-06-25 12:00 61 54 - 77 350° 20 - - 30.14 0 Peak wind: 20 mph (18 kts) from 340° at 56 min
2018-06-25 11:00 61 55 - 81 350° 13 - - 30.13 0 None
2018-06-25 10:00 61 55 - 80 350° 15 - - 30.11 0 None
2018-06-25 09:00 61 56 - 81 350° 14 - - 30.08 0 None
2018-06-25 08:00 62 56 - 82 350° 15 - - 30.05 0 None
2018-06-25 07:00 63 57 - 80 360° 17 - - 30.04 0 Peak wind: 20 mph (18 kts) from 0° at 45 min
2018-06-25 06:00 64 63 - 93 320° 2 - - 30.03 0 None
2018-06-25 05:00 64 62 - 93 250° 2 - - 30.03 0 None
2018-06-25 04:00 65 62 - 92 290° 3 - - 30.02 0 None
2018-06-25 03:00 64 60 - 85 290° 2 - - 29.99 0 None
2018-06-25 02:00 65 61 - 87 320° 3 - - 29.99 0 None
2018-06-25 01:00 64 61 - 88 320° 6 - - 29.96 0 None
2018-06-25 00:00 64 60 - 86 330° 13 - - 29.94 0 None
2018-06-24 23:00 64 61 - 89 320° 10 - - 29.95 0 None
2018-06-24 22:00 64 61 - 89 330° 13 - - 29.91 0 None
2018-06-24 21:00 63 61 - 92 350° 13 - - 29.90 0 None
2018-06-24 20:00 63 61 - 93 360° 12 - - 29.88 0 None

Support USWX by starting your Amazon purchase here.